sensor_id;sensor_type;location;lat;lon;timestamp;pressure;altitude;pressure_sealevel;temperature;humidity
65754;BME280;52488;47.502;18.940;2023-02-17T00:00:15;98940.34;;;1.85;93.73
65754;BME280;52488;47.502;18.940;2023-02-17T00:01:24;98945.53;;;1.83;93.77
65754;BME280;52488;47.502;18.940;2023-02-17T00:02:27;98933.97;;;1.77;93.94
65754;BME280;52488;47.502;18.940;2023-02-17T00:03:30;98940.81;;;1.90;94.00
65754;BME280;52488;47.502;18.940;2023-02-17T00:04:32;98941.53;;;1.96;93.81
65754;BME280;52488;47.502;18.940;2023-02-17T00:05:38;98948.22;;;1.89;93.87
65754;BME280;52488;47.502;18.940;2023-02-17T00:06:41;98930.22;;;1.92;94.24
65754;BME280;52488;47.502;18.940;2023-02-17T00:07:44;98933.34;;;2.01;94.06
65754;BME280;52488;47.502;18.940;2023-02-17T00:08:48;98939.00;;;2.03;93.99
65754;BME280;52488;47.502;18.940;2023-02-17T00:09:52;98935.00;;;2.10;94.03
65754;BME280;52488;47.502;18.940;2023-02-17T00:10:56;98938.44;;;2.10;93.78
65754;BME280;52488;47.502;18.940;2023-02-17T00:11:59;98930.59;;;2.07;93.68
65754;BME280;52488;47.502;18.940;2023-02-17T00:13:03;98934.00;;;2.13;93.50
65754;BME280;52488;47.502;18.940;2023-02-17T00:14:06;98933.28;;;2.12;93.32
65754;BME280;52488;47.502;18.940;2023-02-17T00:15:09;98931.53;;;2.15;93.32
65754;BME280;52488;47.502;18.940;2023-02-17T00:16:16;98939.91;;;2.17;93.29
65754;BME280;52488;47.502;18.940;2023-02-17T00:17:20;98933.37;;;2.31;92.73
65754;BME280;52488;47.502;18.940;2023-02-17T00:18:23;98940.94;;;2.38;92.30
65754;BME280;52488;47.502;18.940;2023-02-17T00:19:26;98939.47;;;2.37;92.06
65754;BME280;52488;47.502;18.940;2023-02-17T00:20:29;98932.59;;;2.36;92.02
65754;BME280;52488;47.502;18.940;2023-02-17T00:21:32;98932.38;;;2.34;92.00
65754;BME280;52488;47.502;18.940;2023-02-17T00:22:35;98936.44;;;2.47;91.49
65754;BME280;52488;47.502;18.940;2023-02-17T00:23:38;98935.94;;;2.48;91.10
65754;BME280;52488;47.502;18.940;2023-02-17T00:24:41;98933.69;;;2.52;90.77
65754;BME280;52488;47.502;18.940;2023-02-17T00:25:44;98939.56;;;2.56;90.27
65754;BME280;52488;47.502;18.940;2023-02-17T00:26:47;98933.63;;;2.58;90.02
65754;BME280;52488;47.502;18.940;2023-02-17T00:27:50;98922.62;;;2.50;90.12
65754;BME280;52488;47.502;18.940;2023-02-17T00:28:53;98927.59;;;2.46;90.32
65754;BME280;52488;47.502;18.940;2023-02-17T00:29:56;98920.19;;;2.47;90.33
65754;BME280;52488;47.502;18.940;2023-02-17T00:31:07;98926.59;;;2.44;90.43
65754;BME280;52488;47.502;18.940;2023-02-17T00:32:11;98925.09;;;2.48;90.30
65754;BME280;52488;47.502;18.940;2023-02-17T00:33:14;98928.16;;;2.39;90.28
65754;BME280;52488;47.502;18.940;2023-02-17T00:34:17;98929.94;;;2.31;90.47
65754;BME280;52488;47.502;18.940;2023-02-17T00:35:20;98932.59;;;2.36;90.44
65754;BME280;52488;47.502;18.940;2023-02-17T00:36:25;98932.28;;;2.46;90.14
65754;BME280;52488;47.502;18.940;2023-02-17T00:37:28;98930.06;;;2.44;89.61
65754;BME280;52488;47.502;18.940;2023-02-17T00:38:31;98926.84;;;2.46;89.68
65754;BME280;52488;47.502;18.940;2023-02-17T00:39:34;98927.22;;;2.55;89.46
65754;BME280;52488;47.502;18.940;2023-02-17T00:40:37;98932.72;;;2.50;89.37
65754;BME280;52488;47.502;18.940;2023-02-17T00:41:40;98927.63;;;2.41;89.72
65754;BME280;52488;47.502;18.940;2023-02-17T00:42:43;98937.69;;;2.46;89.74
65754;BME280;52488;47.502;18.940;2023-02-17T00:43:47;98935.97;;;2.43;89.75
65754;BME280;52488;47.502;18.940;2023-02-17T00:44:50;98938.19;;;2.44;89.73
65754;BME280;52488;47.502;18.940;2023-02-17T00:45:53;98923.88;;;2.44;89.79
65754;BME280;52488;47.502;18.940;2023-02-17T00:46:56;98937.91;;;2.48;89.68
65754;BME280;52488;47.502;18.940;2023-02-17T00:47:59;98935.88;;;2.54;89.45
65754;BME280;52488;47.502;18.940;2023-02-17T00:49:02;98942.00;;;2.60;89.21
65754;BME280;52488;47.502;18.940;2023-02-17T00:50:06;98938.53;;;2.59;88.83
65754;BME280;52488;47.502;18.940;2023-02-17T00:51:10;98939.78;;;2.58;88.82
65754;BME280;52488;47.502;18.940;2023-02-17T00:52:12;98938.28;;;2.63;88.38
65754;BME280;52488;47.502;18.940;2023-02-17T00:53:16;98943.66;;;2.69;88.02
65754;BME280;52488;47.502;18.940;2023-02-17T00:54:19;98939.97;;;2.66;87.79
65754;BME280;52488;47.502;18.940;2023-02-17T00:55:22;98941.72;;;2.63;87.90
65754;BME280;52488;47.502;18.940;2023-02-17T00:56:25;98943.59;;;2.74;87.58
65754;BME280;52488;47.502;18.940;2023-02-17T00:57:28;98941.16;;;2.71;87.51
65754;BME280;52488;47.502;18.940;2023-02-17T00:58:35;98938.44;;;2.71;87.48
65754;BME280;52488;47.502;18.940;2023-02-17T00:59:38;98944.13;;;2.73;87.43
65754;BME280;52488;47.502;18.940;2023-02-17T01:00:41;98936.41;;;2.77;86.80
65754;BME280;52488;47.502;18.940;2023-02-17T01:01:44;98930.50;;;2.78;86.63
65754;BME280;52488;47.502;18.940;2023-02-17T01:02:47;98926.59;;;2.74;86.48
65754;BME280;52488;47.502;18.940;2023-02-17T01:03:50;98924.81;;;2.76;86.58
65754;BME280;52488;47.502;18.940;2023-02-17T01:04:53;98920.53;;;2.86;86.04
65754;BME280;52488;47.502;18.940;2023-02-17T01:05:56;98926.94;;;2.89;85.80
65754;BME280;52488;47.502;18.940;2023-02-17T01:06:59;98924.94;;;2.89;85.40
65754;BME280;52488;47.502;18.940;2023-02-17T01:08:02;98920.59;;;2.81;85.36
65754;BME280;52488;47.502;18.940;2023-02-17T01:09:07;98912.84;;;2.90;85.16
65754;BME280;52488;47.502;18.940;2023-02-17T01:10:10;98921.78;;;2.85;85.12
65754;BME280;52488;47.502;18.940;2023-02-17T01:11:21;98921.03;;;2.85;85.22
65754;BME280;52488;47.502;18.940;2023-02-17T01:12:24;98923.97;;;2.87;85.19
65754;BME280;52488;47.502;18.940;2023-02-17T01:13:27;98925.97;;;2.86;84.81
65754;BME280;52488;47.502;18.940;2023-02-17T01:14:30;98924.91;;;2.95;84.53
65754;BME280;52488;47.502;18.940;2023-02-17T01:15:44;98920.41;;;2.98;84.15
65754;BME280;52488;47.502;18.940;2023-02-17T01:16:48;98923.19;;;2.92;84.13
65754;BME280;52488;47.502;18.940;2023-02-17T01:17:51;98921.94;;;2.93;84.03
65754;BME280;52488;47.502;18.940;2023-02-17T01:18:54;98921.56;;;2.83;83.98
65754;BME280;52488;47.502;18.940;2023-02-17T01:19:57;98917.81;;;2.86;84.07
65754;BME280;52488;47.502;18.940;2023-02-17T01:21:00;98915.31;;;2.88;84.08
65754;BME280;52488;47.502;18.940;2023-02-17T01:22:03;98915.03;;;2.92;83.70
65754;BME280;52488;47.502;18.940;2023-02-17T01:23:08;98918.78;;;2.89;83.62
65754;BME280;52488;47.502;18.940;2023-02-17T01:24:12;98923.19;;;2.92;83.47
65754;BME280;52488;47.502;18.940;2023-02-17T01:25:15;98917.03;;;2.91;83.41
65754;BME280;52488;47.502;18.940;2023-02-17T01:26:21;98917.91;;;3.00;82.96
65754;BME280;52488;47.502;18.940;2023-02-17T01:27:25;98913.78;;;2.93;83.06
65754;BME280;52488;47.502;18.940;2023-02-17T01:28:29;98912.47;;;3.00;82.98
65754;BME280;52488;47.502;18.940;2023-02-17T01:29:32;98915.91;;;3.06;82.32
65754;BME280;52488;47.502;18.940;2023-02-17T01:30:35;98907.38;;;3.15;81.90
65754;BME280;52488;47.502;18.940;2023-02-17T01:31:38;98911.28;;;3.20;81.17
65754;BME280;52488;47.502;18.940;2023-02-17T01:32:42;98902.19;;;3.17;80.83
65754;BME280;52488;47.502;18.940;2023-02-17T01:33:45;98901.06;;;3.07;81.09
65754;BME280;52488;47.502;18.940;2023-02-17T01:34:48;98901.41;;;2.98;81.50
65754;BME280;52488;47.502;18.940;2023-02-17T01:35:51;98892.06;;;2.93;81.80
65754;BME280;52488;47.502;18.940;2023-02-17T01:36:54;98899.28;;;2.90;82.02
65754;BME280;52488;47.502;18.940;2023-02-17T01:37:57;98900.28;;;2.87;82.01
65754;BME280;52488;47.502;18.940;2023-02-17T01:39:00;98894.66;;;3.04;81.34
65754;BME280;52488;47.502;18.940;2023-02-17T01:40:03;98897.22;;;2.97;81.31
65754;BME280;52488;47.502;18.940;2023-02-17T01:41:10;98901.63;;;3.00;81.20
65754;BME280;52488;47.502;18.940;2023-02-17T01:42:18;98898.25;;;2.94;81.31
65754;BME280;52488;47.502;18.940;2023-02-17T01:43:22;98899.22;;;2.96;81.24
65754;BME280;52488;47.502;18.940;2023-02-17T01:44:25;98898.25;;;2.94;81.02
65754;BME280;52488;47.502;18.940;2023-02-17T01:45:37;98894.06;;;2.92;81.02
65754;BME280;52488;47.502;18.940;2023-02-17T01:46:45;98894.84;;;2.87;81.14
65754;BME280;52488;47.502;18.940;2023-02-17T01:49:03;98893.06;;;2.96;80.77
65754;BME280;52488;47.502;18.940;2023-02-17T01:50:11;98891.00;;;3.02;80.49
65754;BME280;52488;47.502;18.940;2023-02-17T01:51:20;98897.91;;;3.03;79.74
65754;BME280;52488;47.502;18.940;2023-02-17T01:52:25;98890.09;;;2.94;80.02
65754;BME280;52488;47.502;18.940;2023-02-17T01:53:37;98887.63;;;2.96;79.75
65754;BME280;52488;47.502;18.940;2023-02-17T01:54:47;98882.28;;;3.09;79.11
65754;BME280;52488;47.502;18.940;2023-02-17T01:55:52;98890.63;;;3.11;78.66
65754;BME280;52488;47.502;18.940;2023-02-17T01:56:58;98883.59;;;3.02;79.07
65754;BME280;52488;47.502;18.940;2023-02-17T01:58:06;98889.53;;;3.01;79.02
65754;BME280;52488;47.502;18.940;2023-02-17T01:59:17;98889.94;;;2.86;79.47
65754;BME280;52488;47.502;18.940;2023-02-17T02:00:22;98880.69;;;2.76;80.00
65754;BME280;52488;47.502;18.940;2023-02-17T02:01:27;98875.38;;;2.89;79.73
65754;BME280;52488;47.502;18.940;2023-02-17T02:02:30;98881.88;;;2.80;79.51
65754;BME280;52488;47.502;18.940;2023-02-17T02:03:35;98885.09;;;2.79;79.91
65754;BME280;52488;47.502;18.940;2023-02-17T02:04:42;98885.09;;;2.79;79.61
65754;BME280;52488;47.502;18.940;2023-02-17T02:05:46;98885.09;;;2.79;79.69
65754;BME280;52488;47.502;18.940;2023-02-17T02:06:49;98893.78;;;2.72;79.87
65754;BME280;52488;47.502;18.940;2023-02-17T02:07:52;98886.56;;;2.80;79.60
65754;BME280;52488;47.502;18.940;2023-02-17T02:09:04;98883.38;;;2.76;79.71
65754;BME280;52488;47.502;18.940;2023-02-17T02:10:12;98888.25;;;2.83;79.56
65754;BME280;52488;47.502;18.940;2023-02-17T02:11:16;98885.84;;;2.79;79.53
65754;BME280;52488;47.502;18.940;2023-02-17T02:12:25;98885.31;;;2.81;79.58
65754;BME280;52488;47.502;18.940;2023-02-17T02:13:28;98878.97;;;2.97;78.91
65754;BME280;52488;47.502;18.940;2023-02-17T02:14:31;98879.56;;;3.09;77.88
65754;BME280;52488;47.502;18.940;2023-02-17T02:15:49;98881.03;;;3.10;77.84
65754;BME280;52488;47.502;18.940;2023-02-17T02:17:18;98889.03;;;3.21;77.58
65754;BME280;52488;47.502;18.940;2023-02-17T02:18:53;98891.84;;;3.34;76.41
65754;BME280;52488;47.502;18.940;2023-02-17T02:26:26;98874.47;;;3.75;73.61
65754;BME280;52488;47.502;18.940;2023-02-17T02:29:18;98886.56;;;3.93;72.35
65754;BME280;52488;47.502;18.940;2023-02-17T02:33:13;98876.00;;;3.89;72.50
65754;BME280;52488;47.502;18.940;2023-02-17T02:34:19;98874.16;;;3.97;71.77
65754;BME280;52488;47.502;18.940;2023-02-17T02:35:27;98875.41;;;3.96;71.80
65754;BME280;52488;47.502;18.940;2023-02-17T02:38:45;98875.50;;;3.91;72.43
65754;BME280;52488;47.502;18.940;2023-02-17T02:39:33;98876.66;;;3.95;71.85
65754;BME280;52488;47.502;18.940;2023-02-17T02:40:44;98875.56;;;3.85;72.26
65754;BME280;52488;47.502;18.940;2023-02-17T02:42:55;98871.16;;;3.82;72.62
65754;BME280;52488;47.502;18.940;2023-02-17T02:43:58;98874.31;;;3.86;72.27
65754;BME280;52488;47.502;18.940;2023-02-17T02:45:05;98873.37;;;3.84;72.26
65754;BME280;52488;47.502;18.940;2023-02-17T02:46:09;98879.31;;;3.82;72.34
65754;BME280;52488;47.502;18.940;2023-02-17T02:47:39;98879.09;;;3.80;72.46
65754;BME280;52488;47.502;18.940;2023-02-17T02:48:43;98880.37;;;3.79;72.66
65754;BME280;52488;47.502;18.940;2023-02-17T02:49:46;98880.13;;;3.77;72.73
65754;BME280;52488;47.502;18.940;2023-02-17T02:52:25;98879.91;;;3.75;73.06
65754;BME280;52488;47.502;18.940;2023-02-17T02:53:48;98875.75;;;3.74;73.09
65754;BME280;52488;47.502;18.940;2023-02-17T02:56:38;98870.81;;;3.73;72.96
65754;BME280;52488;47.502;18.940;2023-02-17T02:58:05;98875.38;;;3.64;72.92
65754;BME280;52488;47.502;18.940;2023-02-17T03:03:21;98868.50;;;3.44;73.84
65754;BME280;52488;47.502;18.940;2023-02-17T03:04:37;98869.06;;;3.37;74.13
65754;BME280;52488;47.502;18.940;2023-02-17T03:06:08;98873.69;;;3.42;73.84
65754;BME280;52488;47.502;18.940;2023-02-17T03:07:23;98873.25;;;3.38;74.07
65754;BME280;52488;47.502;18.940;2023-02-17T03:08:30;98863.44;;;3.35;74.13
65754;BME280;52488;47.502;18.940;2023-02-17T03:09:35;98864.53;;;3.46;74.02
65754;BME280;52488;47.502;18.940;2023-02-17T03:10:48;98864.09;;;3.41;73.62
65754;BME280;52488;47.502;18.940;2023-02-17T03:11:54;98874.91;;;3.28;74.09
65754;BME280;52488;47.502;18.940;2023-02-17T03:13:01;98871.53;;;3.22;74.39
65754;BME280;52488;47.502;18.940;2023-02-17T03:14:07;98880.47;;;3.17;74.62
65754;BME280;52488;47.502;18.940;2023-02-17T03:15:23;98879.72;;;3.16;74.71
65754;BME280;52488;47.502;18.940;2023-02-17T03:16:28;98894.53;;;3.15;74.63
65754;BME280;52488;47.502;18.940;2023-02-17T03:17:32;98897.84;;;3.08;74.87
65754;BME280;52488;47.502;18.940;2023-02-17T03:18:35;98902.31;;;3.06;75.07
65754;BME280;52488;47.502;18.940;2023-02-17T03:19:38;98894.00;;;2.98;75.14
65754;BME280;52488;47.502;18.940;2023-02-17T03:20:55;98889.53;;;3.01;75.24
65754;BME280;52488;47.502;18.940;2023-02-17T03:22:11;98892.53;;;2.97;75.44
65754;BME280;52488;47.502;18.940;2023-02-17T03:23:18;98892.00;;;2.99;75.44
65754;BME280;52488;47.502;18.940;2023-02-17T03:24:21;98885.78;;;3.04;74.86
65754;BME280;52488;47.502;18.940;2023-02-17T03:25:24;98895.31;;;2.91;75.21
65754;BME280;52488;47.502;18.940;2023-02-17T03:26:27;98885.25;;;2.86;75.56
65754;BME280;52488;47.502;18.940;2023-02-17T03:27:30;98894.44;;;2.83;75.66
65754;BME280;52488;47.502;18.940;2023-02-17T03:28:32;98892.00;;;2.80;75.80
65754;BME280;52488;47.502;18.940;2023-02-17T03:29:36;98884.59;;;2.80;75.90
65754;BME280;52488;47.502;18.940;2023-02-17T03:30:39;98894.19;;;2.81;75.85
65754;BME280;52488;47.502;18.940;2023-02-17T03:31:42;98884.12;;;2.76;75.97
65754;BME280;52488;47.502;18.940;2023-02-17T03:32:45;98887.63;;;2.71;76.05
65754;BME280;52488;47.502;18.940;2023-02-17T03:33:49;98873.37;;;2.65;76.38
65754;BME280;52488;47.502;18.940;2023-02-17T03:34:52;98891.69;;;2.59;76.55
65754;BME280;52488;47.502;18.940;2023-02-17T03:35:55;98896.91;;;2.57;76.84
65754;BME280;52488;47.502;18.940;2023-02-17T03:36:57;98899.16;;;2.53;76.99
65754;BME280;52488;47.502;18.940;2023-02-17T03:38:00;98903.13;;;2.52;77.12
65754;BME280;52488;47.502;18.940;2023-02-17T03:39:03;98901.59;;;2.56;76.89
65754;BME280;52488;47.502;18.940;2023-02-17T03:40:07;98898.66;;;2.54;76.94
65754;BME280;52488;47.502;18.940;2023-02-17T03:41:13;98901.34;;;2.54;76.92
65754;BME280;52488;47.502;18.940;2023-02-17T03:42:16;98898.44;;;2.52;77.02
65754;BME280;52488;47.502;18.940;2023-02-17T03:43:19;98896.72;;;2.49;77.11
65754;BME280;52488;47.502;18.940;2023-02-17T03:44:22;98899.94;;;2.48;77.30
65754;BME280;52488;47.502;18.940;2023-02-17T03:45:25;98892.84;;;2.45;77.38
65754;BME280;52488;47.502;18.940;2023-02-17T03:46:28;98897.06;;;2.40;77.61
65754;BME280;52488;47.502;18.940;2023-02-17T03:47:31;98893.06;;;2.47;77.63
65754;BME280;52488;47.502;18.940;2023-02-17T03:48:34;98897.81;;;2.41;77.87
65754;BME280;52488;47.502;18.940;2023-02-17T03:49:37;98903.03;;;2.33;78.24
65754;BME280;52488;47.502;18.940;2023-02-17T03:50:40;98895.91;;;2.30;78.33
65754;BME280;52488;47.502;18.940;2023-02-17T03:51:43;98892.12;;;2.38;78.25
65754;BME280;52488;47.502;18.940;2023-02-17T03:52:46;98889.41;;;2.38;77.99
65754;BME280;52488;47.502;18.940;2023-02-17T03:53:49;98892.91;;;2.39;78.06
65754;BME280;52488;47.502;18.940;2023-02-17T03:54:52;98894.41;;;2.34;78.13
65754;BME280;52488;47.502;18.940;2023-02-17T03:55:55;98895.87;;;2.35;78.18
65754;BME280;52488;47.502;18.940;2023-02-17T03:56:58;98887.28;;;2.31;78.37
65754;BME280;52488;47.502;18.940;2023-02-17T03:58:03;98881.63;;;2.29;78.51
65754;BME280;52488;47.502;18.940;2023-02-17T03:59:05;98887.06;;;2.29;78.49
65754;BME280;52488;47.502;18.940;2023-02-17T04:00:08;98880.84;;;2.34;78.50
65754;BME280;52488;47.502;18.940;2023-02-17T04:01:12;98883.56;;;2.34;78.46
65754;BME280;52488;47.502;18.940;2023-02-17T04:02:15;98877.84;;;2.38;78.40
65754;BME280;52488;47.502;18.940;2023-02-17T04:03:18;98868.66;;;2.47;78.05
65754;BME280;52488;47.502;18.940;2023-02-17T04:04:21;98877.09;;;2.37;78.20
65754;BME280;52488;47.502;18.940;2023-02-17T04:05:24;98876.38;;;2.37;78.35
65754;BME280;52488;47.502;18.940;2023-02-17T04:06:27;98874.84;;;2.42;78.26
65754;BME280;52488;47.502;18.940;2023-02-17T04:07:30;98873.91;;;2.39;78.11
65754;BME280;52488;47.502;18.940;2023-02-17T04:08:33;98876.47;;;2.26;78.44
65754;BME280;52488;47.502;18.940;2023-02-17T04:09:36;98878.72;;;2.22;78.70
65754;BME280;52488;47.502;18.940;2023-02-17T04:10:38;98877.50;;;2.23;78.82
65754;BME280;52488;47.502;18.940;2023-02-17T04:11:42;98878.97;;;2.24;78.75
65754;BME280;52488;47.502;18.940;2023-02-17T04:12:45;98875.53;;;2.23;78.94
65754;BME280;52488;47.502;18.940;2023-02-17T04:13:48;98885.34;;;2.26;78.99
65754;BME280;52488;47.502;18.940;2023-02-17T04:14:50;98876.53;;;2.20;79.14
65754;BME280;52488;47.502;18.940;2023-02-17T04:15:53;98883.19;;;2.19;79.37
65754;BME280;52488;47.502;18.940;2023-02-17T04:16:56;98879.97;;;2.21;79.30
65754;BME280;52488;47.502;18.940;2023-02-17T04:18:00;98876.47;;;2.26;79.24
65754;BME280;52488;47.502;18.940;2023-02-17T04:19:04;98882.97;;;2.17;79.39
65754;BME280;52488;47.502;18.940;2023-02-17T04:20:08;98882.63;;;2.26;79.46
65754;BME280;52488;47.502;18.940;2023-02-17T04:21:11;98884.47;;;2.43;78.80
65754;BME280;52488;47.502;18.940;2023-02-17T04:22:14;98881.13;;;2.31;79.21
65754;BME280;52488;47.502;18.940;2023-02-17T04:23:17;98871.78;;;2.26;79.48
65754;BME280;52488;47.502;18.940;2023-02-17T04:24:20;98868.62;;;2.22;79.70
65754;BME280;52488;47.502;18.940;2023-02-17T04:25:22;98866.37;;;2.26;79.78
65754;BME280;52488;47.502;18.940;2023-02-17T04:26:26;98864.16;;;2.25;79.66
65754;BME280;52488;47.502;18.940;2023-02-17T04:27:29;98859.88;;;2.35;79.51
65754;BME280;52488;47.502;18.940;2023-02-17T04:28:32;98859.38;;;2.36;79.33
65754;BME280;52488;47.502;18.940;2023-02-17T04:29:35;98858.06;;;2.43;79.26
65754;BME280;52488;47.502;18.940;2023-02-17T04:30:38;98857.69;;;2.58;78.52
65754;BME280;52488;47.502;18.940;2023-02-17T04:31:41;98852.84;;;2.51;78.43
65754;BME280;52488;47.502;18.940;2023-02-17T04:32:44;98859.31;;;2.42;78.75
65754;BME280;52488;47.502;18.940;2023-02-17T04:33:47;98868.53;;;2.33;79.17
65754;BME280;52488;47.502;18.940;2023-02-17T04:34:50;98864.63;;;2.29;79.44
65754;BME280;52488;47.502;18.940;2023-02-17T04:35:52;98871.06;;;2.26;79.59
65754;BME280;52488;47.502;18.940;2023-02-17T04:37:01;98866.37;;;2.26;79.69
65754;BME280;52488;47.502;18.940;2023-02-17T04:38:05;98868.97;;;2.37;79.23
65754;BME280;52488;47.502;18.940;2023-02-17T04:39:08;98863.84;;;2.34;79.39
65754;BME280;52488;47.502;18.940;2023-02-17T04:40:11;98868.91;;;2.43;79.08
65754;BME280;52488;47.502;18.940;2023-02-17T04:41:14;98865.31;;;2.35;79.03
65754;BME280;52488;47.502;18.940;2023-02-17T04:42:17;98873.53;;;2.24;79.40
65754;BME280;52488;47.502;18.940;2023-02-17T04:43:20;98866.66;;;2.23;79.61
65754;BME280;52488;47.502;18.940;2023-02-17T04:44:23;98872.87;;;2.18;79.76
65754;BME280;52488;47.502;18.940;2023-02-17T04:45:25;98871.09;;;2.20;79.87
65754;BME280;52488;47.502;18.940;2023-02-17T04:46:28;98858.00;;;2.24;79.75
65754;BME280;52488;47.502;18.940;2023-02-17T04:47:32;98869.03;;;2.32;79.51
65754;BME280;52488;47.502;18.940;2023-02-17T04:48:35;98857.22;;;2.29;79.36
65754;BME280;52488;47.502;18.940;2023-02-17T04:49:38;98868.50;;;2.39;79.09
65754;BME280;52488;47.502;18.940;2023-02-17T04:50:40;98871.69;;;2.37;78.95
65754;BME280;52488;47.502;18.940;2023-02-17T04:51:43;98858.63;;;2.36;79.02
65754;BME280;52488;47.502;18.940;2023-02-17T04:52:46;98864.78;;;2.36;78.88
65754;BME280;52488;47.502;18.940;2023-02-17T04:53:49;98869.22;;;2.40;78.77
65754;BME280;52488;47.502;18.940;2023-02-17T04:54:52;98862.81;;;2.37;78.77
65754;BME280;52488;47.502;18.940;2023-02-17T04:55:55;98861.56;;;2.38;78.77
65754;BME280;52488;47.502;18.940;2023-02-17T04:56:58;98865.59;;;2.31;78.86
65754;BME280;52488;47.502;18.940;2023-02-17T04:58:01;98874.97;;;2.30;78.97
65754;BME280;52488;47.502;18.940;2023-02-17T04:59:04;98874.06;;;2.22;79.20
65754;BME280;52488;47.502;18.940;2023-02-17T05:00:07;98876.53;;;2.20;79.49
65754;BME280;52488;47.502;18.940;2023-02-17T05:01:10;98877.16;;;2.32;79.37
65754;BME280;52488;47.502;18.940;2023-02-17T05:02:13;98872.53;;;2.27;79.37
65754;BME280;52488;47.502;18.940;2023-02-17T05:03:17;98867.63;;;2.25;79.60
65754;BME280;52488;47.502;18.940;2023-02-17T05:04:20;98873.03;;;2.25;79.72
65754;BME280;52488;47.502;18.940;2023-02-17T05:05:23;98873.81;;;2.20;79.91
65754;BME280;52488;47.502;18.940;2023-02-17T05:06:25;98880.44;;;2.25;79.92
65754;BME280;52488;47.502;18.940;2023-02-17T05:07:28;98875.78;;;2.20;80.00
65754;BME280;52488;47.502;18.940;2023-02-17T05:08:31;98873.13;;;2.14;80.33
65754;BME280;52488;47.502;18.940;2023-02-17T05:09:34;98872.19;;;2.11;80.59
65754;BME280;52488;47.502;18.940;2023-02-17T05:10:38;98878.81;;;2.10;80.95
65754;BME280;52488;47.502;18.940;2023-02-17T05:11:41;98879.69;;;2.24;80.63
65754;BME280;52488;47.502;18.940;2023-02-17T05:12:44;98885.25;;;2.37;80.27
65754;BME280;52488;47.502;18.940;2023-02-17T05:13:46;98881.81;;;2.37;80.12
65754;BME280;52488;47.502;18.940;2023-02-17T05:14:49;98884.03;;;2.33;80.25
65754;BME280;52488;47.502;18.940;2023-02-17T05:15:52;98884.03;;;2.33;80.27
65754;BME280;52488;47.502;18.940;2023-02-17T05:16:55;98883.56;;;2.34;80.34
65754;BME280;52488;47.502;18.940;2023-02-17T05:17:58;98881.34;;;2.33;80.37
65754;BME280;52488;47.502;18.940;2023-02-17T05:19:01;98886.03;;;2.32;80.47
65754;BME280;52488;47.502;18.940;2023-02-17T05:20:05;98886.28;;;2.34;80.43
65754;BME280;52488;47.502;18.940;2023-02-17T05:21:08;98879.66;;;2.30;80.57
65754;BME280;52488;47.502;18.940;2023-02-17T05:22:11;98877.94;;;2.27;80.76
65754;BME280;52488;47.502;18.940;2023-02-17T05:23:14;98879.87;;;2.32;80.68
65754;BME280;52488;47.502;18.940;2023-02-17T05:24:16;98884.81;;;2.33;80.65
65754;BME280;52488;47.502;18.940;2023-02-17T05:25:19;98885.81;;;2.30;80.77
65754;BME280;52488;47.502;18.940;2023-02-17T05:26:23;98887.28;;;2.31;80.82
65754;BME280;52488;47.502;18.940;2023-02-17T05:27:26;98876.94;;;2.30;80.86
65754;BME280;52488;47.502;18.940;2023-02-17T05:28:29;98886.31;;;2.29;80.90
65754;BME280;52488;47.502;18.940;2023-02-17T05:29:32;98877.16;;;2.32;80.89
65754;BME280;52488;47.502;18.940;2023-02-17T05:30:35;98881.06;;;2.36;80.74
65754;BME280;52488;47.502;18.940;2023-02-17T05:31:37;98884.00;;;2.38;80.68
65754;BME280;52488;47.502;18.940;2023-02-17T05:32:40;98879.34;;;2.39;80.65
65754;BME280;52488;47.502;18.940;2023-02-17T05:33:43;98881.53;;;2.41;80.55
65754;BME280;52488;47.502;18.940;2023-02-17T05:34:46;98885.25;;;2.37;80.64
65754;BME280;52488;47.502;18.940;2023-02-17T05:35:49;98881.75;;;2.43;80.70
65754;BME280;52488;47.502;18.940;2023-02-17T05:36:51;98881.69;;;2.48;80.36
65754;BME280;52488;47.502;18.940;2023-02-17T05:37:54;98879.66;;;2.54;80.16
65754;BME280;52488;47.502;18.940;2023-02-17T05:38:57;98878.38;;;2.61;79.91
65754;BME280;52488;47.502;18.940;2023-02-17T05:40:00;98879.53;;;2.65;79.61
65754;BME280;52488;47.502;18.940;2023-02-17T05:41:03;98873.37;;;2.65;79.60
65754;BME280;52488;47.502;18.940;2023-02-17T05:42:06;98884.03;;;2.63;79.68
65754;BME280;52488;47.502;18.940;2023-02-17T05:43:09;98878.81;;;2.65;79.57
65754;BME280;52488;47.502;18.940;2023-02-17T05:44:12;98886.22;;;2.64;79.58
65754;BME280;52488;47.502;18.940;2023-02-17T05:45:15;98883.81;;;2.61;79.75
65754;BME280;52488;47.502;18.940;2023-02-17T05:46:18;98885.28;;;2.62;79.76
65754;BME280;52488;47.502;18.940;2023-02-17T05:47:22;98881.53;;;2.65;79.79
65754;BME280;52488;47.502;18.940;2023-02-17T05:48:26;98889.84;;;2.73;79.50
65754;BME280;52488;47.502;18.940;2023-02-17T05:49:30;98890.34;;;2.71;79.43
65754;BME280;52488;47.502;18.940;2023-02-17T05:50:33;98895.56;;;2.69;79.46
65754;BME280;52488;47.502;18.940;2023-02-17T05:51:36;98890.13;;;2.69;79.54
65754;BME280;52488;47.502;18.940;2023-02-17T05:52:39;98892.25;;;2.76;79.45
65754;BME280;52488;47.502;18.940;2023-02-17T05:53:43;98889.56;;;2.76;79.31
65754;BME280;52488;47.502;18.940;2023-02-17T05:54:46;98883.38;;;2.76;79.35
65754;BME280;52488;47.502;18.940;2023-02-17T05:55:49;98886.34;;;2.78;79.34
65754;BME280;52488;47.502;18.940;2023-02-17T05:56:52;98886.63;;;2.74;79.43
65754;BME280;52488;47.502;18.940;2023-02-17T05:57:55;98874.31;;;2.73;79.65
65754;BME280;52488;47.502;18.940;2023-02-17T05:58:58;98881.19;;;2.74;79.68
65754;BME280;52488;47.502;18.940;2023-02-17T06:00:03;98880.41;;;2.79;79.52
65754;BME280;52488;47.502;18.940;2023-02-17T06:01:10;98878.63;;;2.82;79.42
65754;BME280;52488;47.502;18.940;2023-02-17T06:02:13;98881.34;;;2.82;79.32
65754;BME280;52488;47.502;18.940;2023-02-17T06:03:15;98879.87;;;2.81;79.35
65754;BME280;52488;47.502;18.940;2023-02-17T06:04:18;98881.13;;;2.80;79.38